sensor_id;sensor_type;location;lat;lon;timestamp;pressure;altitude;pressure_sealevel;temperature;humidity
13407;BME280;6774;48.208;10.766;2023-04-01T00:00:32;94364.06;;;7.43;85.88
13407;BME280;6774;48.208;10.766;2023-04-01T00:03:00;94369.03;;;7.31;86.22
13407;BME280;6774;48.208;10.766;2023-04-01T00:05:28;94358.38;;;7.39;85.89
13407;BME280;6774;48.208;10.766;2023-04-01T00:07:57;94350.56;;;7.52;86.00
13407;BME280;6774;48.208;10.766;2023-04-01T00:10:24;94352.31;;;7.38;86.12
13407;BME280;6774;48.208;10.766;2023-04-01T00:12:53;94358.03;;;7.55;86.08
13407;BME280;6774;48.208;10.766;2023-04-01T00:15:21;94355.66;;;7.60;84.74
13407;BME280;6774;48.208;10.766;2023-04-01T00:17:49;94356.09;;;7.70;84.72
13407;BME280;6774;48.208;10.766;2023-04-01T00:20:17;94362.69;;;7.53;84.26
13407;BME280;6774;48.208;10.766;2023-04-01T00:22:44;94362.13;;;7.71;83.97
13407;BME280;6774;48.208;10.766;2023-04-01T00:25:12;94358.44;;;7.59;84.40
13407;BME280;6774;48.208;10.766;2023-04-01T00:27:40;94350.78;;;7.57;84.88
13407;BME280;6774;48.208;10.766;2023-04-01T00:30:10;94367.75;;;7.55;84.26
13407;BME280;6774;48.208;10.766;2023-04-01T00:32:38;94372.63;;;7.64;84.01
13407;BME280;6774;48.208;10.766;2023-04-01T00:35:06;94371.84;;;7.70;84.53
13407;BME280;6774;48.208;10.766;2023-04-01T00:37:34;94400.91;;;7.69;83.78
13407;BME280;6774;48.208;10.766;2023-04-01T00:40:04;94375.06;;;7.73;84.52
13407;BME280;6774;48.208;10.766;2023-04-01T00:42:32;94378.69;;;7.65;84.91
13407;BME280;6774;48.208;10.766;2023-04-01T00:45:25;94382.28;;;7.51;86.28
13407;BME280;6774;48.208;10.766;2023-04-01T00:47:54;94395.19;;;7.52;86.85
13407;BME280;6774;48.208;10.766;2023-04-01T00:50:24;94394.19;;;7.53;85.71
13407;BME280;6774;48.208;10.766;2023-04-01T00:52:52;94377.41;;;7.41;86.13
13407;BME280;6774;48.208;10.766;2023-04-01T00:55:22;94369.78;;;7.66;85.29
13407;BME280;6774;48.208;10.766;2023-04-01T00:57:53;94387.06;;;7.40;85.96
13407;BME280;6774;48.208;10.766;2023-04-01T01:00:25;94371.38;;;7.54;85.26
13407;BME280;6774;48.208;10.766;2023-04-01T01:02:53;94362.34;;;7.69;85.26
13407;BME280;6774;48.208;10.766;2023-04-01T01:05:27;94360.91;;;7.60;85.58
13407;BME280;6774;48.208;10.766;2023-04-01T01:08:17;94361.28;;;7.57;84.67
13407;BME280;6774;48.208;10.766;2023-04-01T01:10:49;94360.91;;;7.60;84.70
13407;BME280;6774;48.208;10.766;2023-04-01T01:13:19;94358.47;;;7.65;84.95
13407;BME280;6774;48.208;10.766;2023-04-01T01:15:54;94368.59;;;7.68;84.49
13407;BME280;6774;48.208;10.766;2023-04-01T01:18:32;94350.78;;;7.57;84.39
13407;BME280;6774;48.208;10.766;2023-04-01T01:24:50;94346.53;;;7.56;84.78
13407;BME280;6774;48.208;10.766;2023-04-01T01:27:21;94355.66;;;7.60;84.18
13407;BME280;6774;48.208;10.766;2023-04-01T01:30:16;94364.53;;;7.59;84.07
13407;BME280;6774;48.208;10.766;2023-04-01T01:33:06;94386.31;;;7.53;84.20
13407;BME280;6774;48.208;10.766;2023-04-01T01:35:43;94360.91;;;7.67;84.21
13407;BME280;6774;48.208;10.766;2023-04-01T01:38:19;94361.94;;;7.73;84.11
13407;BME280;6774;48.208;10.766;2023-04-01T01:40:59;94362.53;;;7.61;84.45
13407;BME280;6774;48.208;10.766;2023-04-01T01:43:30;94359.25;;;7.53;84.17
13407;BME280;6774;48.208;10.766;2023-04-01T01:46:02;94350.41;;;7.60;83.52
13407;BME280;6774;48.208;10.766;2023-04-01T01:48:33;94352.34;;;7.45;84.06
13407;BME280;6774;48.208;10.766;2023-04-01T01:51:03;94352.75;;;7.49;84.52
13407;BME280;6774;48.208;10.766;2023-04-01T01:53:32;94343.63;;;7.31;84.83
13407;BME280;6774;48.208;10.766;2023-04-01T01:56:00;94348.72;;;7.46;84.30
13407;BME280;6774;48.208;10.766;2023-04-01T01:58:33;94343.03;;;7.36;84.99
13407;BME280;6774;48.208;10.766;2023-04-01T02:01:10;94340.66;;;7.41;84.40
13407;BME280;6774;48.208;10.766;2023-04-01T02:03:41;94352.94;;;7.40;83.77
13407;BME280;6774;48.208;10.766;2023-04-01T02:06:15;94336.00;;;7.43;83.80
13407;BME280;6774;48.208;10.766;2023-04-01T02:08:45;94352.34;;;7.45;83.95
13407;BME280;6774;48.208;10.766;2023-04-01T02:11:16;94354.69;;;7.20;84.13
13407;BME280;6774;48.208;10.766;2023-04-01T02:13:52;94349.06;;;7.30;84.46
13407;BME280;6774;48.208;10.766;2023-04-01T02:16:26;94349.94;;;7.02;84.68
13407;BME280;6774;48.208;10.766;2023-04-01T02:18:57;94362.78;;;7.25;84.03
13407;BME280;6774;48.208;10.766;2023-04-01T02:21:30;94349.41;;;7.13;83.94
13407;BME280;6774;48.208;10.766;2023-04-01T02:24:00;94365.56;;;7.17;84.37
13407;BME280;6774;48.208;10.766;2023-04-01T02:26:29;94357.66;;;7.10;84.70
13407;BME280;6774;48.208;10.766;2023-04-01T02:28:59;94356.88;;;7.17;84.53
13407;BME280;6774;48.208;10.766;2023-04-01T02:31:27;94374.34;;;6.96;85.14
13407;BME280;6774;48.208;10.766;2023-04-01T02:33:56;94364.72;;;7.10;84.41
13407;BME280;6774;48.208;10.766;2023-04-01T02:36:24;94372.84;;;7.22;83.77
13407;BME280;6774;48.208;10.766;2023-04-01T02:38:54;94368.38;;;7.16;83.95
13407;BME280;6774;48.208;10.766;2023-04-01T02:41:25;94360.72;;;7.14;84.06
13407;BME280;6774;48.208;10.766;2023-04-01T02:43:53;94358.25;;;7.06;83.79
13407;BME280;6774;48.208;10.766;2023-04-01T02:46:21;94370.09;;;6.95;84.39
13407;BME280;6774;48.208;10.766;2023-04-01T02:48:49;94363.84;;;6.96;83.94
13407;BME280;6774;48.208;10.766;2023-04-01T02:51:17;94391.59;;;6.84;84.50
13407;BME280;6774;48.208;10.766;2023-04-01T02:53:44;94373.44;;;6.82;84.20
13407;BME280;6774;48.208;10.766;2023-04-01T02:56:13;94367.16;;;6.77;85.10
13407;BME280;6774;48.208;10.766;2023-04-01T02:58:41;94375.41;;;6.74;84.71
13407;BME280;6774;48.208;10.766;2023-04-01T03:01:09;94389.91;;;6.70;85.08
13407;BME280;6774;48.208;10.766;2023-04-01T03:03:37;94387.88;;;6.72;85.14
13407;BME280;6774;48.208;10.766;2023-04-01T03:06:05;94384.59;;;6.63;85.15
13407;BME280;6774;48.208;10.766;2023-04-01T03:08:33;94389.44;;;6.60;85.08
13407;BME280;6774;48.208;10.766;2023-04-01T03:11:01;94384.25;;;6.73;85.29
13407;BME280;6774;48.208;10.766;2023-04-01T03:13:33;94378.56;;;6.63;85.34
13407;BME280;6774;48.208;10.766;2023-04-01T03:16:01;94379.88;;;6.52;85.87
13407;BME280;6774;48.208;10.766;2023-04-01T03:18:29;94376.53;;;6.65;85.46
13407;BME280;6774;48.208;10.766;2023-04-01T03:20:57;94374.94;;;6.64;85.59
13407;BME280;6774;48.208;10.766;2023-04-01T03:23:24;94382.19;;;6.62;85.71
13407;BME280;6774;48.208;10.766;2023-04-01T03:25:52;94398.66;;;6.55;86.26
13407;BME280;6774;48.208;10.766;2023-04-01T03:28:20;94392.78;;;6.81;85.77
13407;BME280;6774;48.208;10.766;2023-04-01T03:30:49;94396.97;;;6.76;85.21
13407;BME280;6774;48.208;10.766;2023-04-01T03:33:16;94400.75;;;6.67;85.67
13407;BME280;6774;48.208;10.766;2023-04-01T03:35:44;94408.47;;;6.75;85.95
13407;BME280;6774;48.208;10.766;2023-04-01T03:38:12;94383.16;;;6.89;86.67
13407;BME280;6774;48.208;10.766;2023-04-01T03:40:42;94400.84;;;6.80;87.23
13407;BME280;6774;48.208;10.766;2023-04-01T03:43:10;94392.22;;;6.86;87.56
13407;BME280;6774;48.208;10.766;2023-04-01T03:45:43;94391.41;;;6.85;87.69
13407;BME280;6774;48.208;10.766;2023-04-01T03:48:14;94389.63;;;6.86;87.10
13407;BME280;6774;48.208;10.766;2023-04-01T03:50:42;94394.47;;;6.89;87.24
13407;BME280;6774;48.208;10.766;2023-04-01T03:53:10;94402.09;;;6.84;87.42
13407;BME280;6774;48.208;10.766;2023-04-01T03:55:41;94393.16;;;7.06;87.81
13407;BME280;6774;48.208;10.766;2023-04-01T03:58:09;94395.94;;;6.98;87.53
13407;BME280;6774;48.208;10.766;2023-04-01T04:00:37;94393.34;;;7.05;87.43
13407;BME280;6774;48.208;10.766;2023-04-01T04:03:05;94396.59;;;7.07;87.34
13407;BME280;6774;48.208;10.766;2023-04-01T04:05:36;94404.56;;;6.92;87.28
13407;BME280;6774;48.208;10.766;2023-04-01T04:08:04;94398.50;;;6.92;87.82
13407;BME280;6774;48.208;10.766;2023-04-01T04:10:33;94401.63;;;7.08;87.45
13407;BME280;6774;48.208;10.766;2023-04-01T04:13:01;94402.44;;;7.09;86.87
13407;BME280;6774;48.208;10.766;2023-04-01T04:15:32;94403.03;;;7.04;87.40
13407;BME280;6774;48.208;10.766;2023-04-01T04:18:00;94410.31;;;7.09;87.58
13407;BME280;6774;48.208;10.766;2023-04-01T04:20:28;94408.91;;;7.06;86.57
13407;BME280;6774;48.208;10.766;2023-04-01T04:22:57;94405.47;;;7.06;87.34
13407;BME280;6774;48.208;10.766;2023-04-01T04:25:25;94399.88;;;7.16;87.02
13407;BME280;6774;48.208;10.766;2023-04-01T04:27:52;94399.72;;;7.24;87.02
13407;BME280;6774;48.208;10.766;2023-04-01T04:30:20;94406.78;;;7.23;85.96
13407;BME280;6774;48.208;10.766;2023-04-01T04:32:48;94407.78;;;7.29;86.19
13407;BME280;6774;48.208;10.766;2023-04-01T04:35:16;94400.38;;;7.39;85.72
13407;BME280;6774;48.208;10.766;2023-04-01T04:37:44;94401.34;;;7.31;85.74
13407;BME280;6774;48.208;10.766;2023-04-01T04:40:14;94405.19;;;7.29;85.51
13407;BME280;6774;48.208;10.766;2023-04-01T04:42:41;94400.56;;;7.37;85.47
13407;BME280;6774;48.208;10.766;2023-04-01T04:45:12;94405.63;;;7.39;84.25
13407;BME280;6774;48.208;10.766;2023-04-01T04:47:49;94407.63;;;7.37;84.19
13407;BME280;6774;48.208;10.766;2023-04-01T04:50:17;94401.53;;;7.30;84.04
13407;BME280;6774;48.208;10.766;2023-04-01T04:52:45;94414.13;;;7.41;84.19
13407;BME280;6774;48.208;10.766;2023-04-01T04:55:14;94410.06;;;7.32;83.99
13407;BME280;6774;48.208;10.766;2023-04-01T04:57:46;94406.06;;;7.43;84.10
13407;BME280;6774;48.208;10.766;2023-04-01T05:00:14;94401.22;;;7.46;84.27
13407;BME280;6774;48.208;10.766;2023-04-01T05:02:59;94396.75;;;7.40;83.75
13407;BME280;6774;48.208;10.766;2023-04-01T05:05:27;94427.25;;;7.41;83.96
13407;BME280;6774;48.208;10.766;2023-04-01T05:07:56;94404.25;;;7.50;83.66
13407;BME280;6774;48.208;10.766;2023-04-01T05:10:25;94403.06;;;7.52;83.52
13407;BME280;6774;48.208;10.766;2023-04-01T05:12:53;94405.19;;;7.29;83.71
13407;BME280;6774;48.208;10.766;2023-04-01T05:15:22;94414.50;;;7.38;83.89
13407;BME280;6774;48.208;10.766;2023-04-01T05:17:50;94400.38;;;7.39;84.05
13407;BME280;6774;48.208;10.766;2023-04-01T05:20:18;94397.22;;;7.50;83.33
13407;BME280;6774;48.208;10.766;2023-04-01T05:22:45;94407.69;;;7.44;83.58
13407;BME280;6774;48.208;10.766;2023-04-01T05:25:13;94403.88;;;7.53;83.62
13407;BME280;6774;48.208;10.766;2023-04-01T05:27:42;94403.97;;;7.31;83.42
13407;BME280;6774;48.208;10.766;2023-04-01T05:30:11;94398.34;;;7.34;83.18
13407;BME280;6774;48.208;10.766;2023-04-01T05:32:44;94393.13;;;7.41;82.84
13407;BME280;6774;48.208;10.766;2023-04-01T05:35:12;94407.19;;;7.27;83.63
13407;BME280;6774;48.208;10.766;2023-04-01T05:37:39;94412.13;;;7.43;83.25
13407;BME280;6774;48.208;10.766;2023-04-01T05:40:08;94408.53;;;7.51;82.93
13407;BME280;6774;48.208;10.766;2023-04-01T05:42:36;94401.69;;;7.63;83.22
13407;BME280;6774;48.208;10.766;2023-04-01T05:45:07;94407.34;;;7.60;83.05
13407;BME280;6774;48.208;10.766;2023-04-01T05:47:50;94409.00;;;7.74;82.59
13407;BME280;6774;48.208;10.766;2023-04-01T05:50:19;94404.56;;;7.75;82.61
13407;BME280;6774;48.208;10.766;2023-04-01T05:52:46;94405.41;;;7.82;82.25
13407;BME280;6774;48.208;10.766;2023-04-01T05:55:15;94407.00;;;7.83;82.36
13407;BME280;6774;48.208;10.766;2023-04-01T05:57:44;94408.63;;;7.84;81.69
13407;BME280;6774;48.208;10.766;2023-04-01T06:00:14;94400.63;;;8.05;81.88
13407;BME280;6774;48.208;10.766;2023-04-01T06:02:42;94412.75;;;8.06;82.39
13407;BME280;6774;48.208;10.766;2023-04-01T06:05:14;94413.13;;;8.03;81.14
13407;BME280;6774;48.208;10.766;2023-04-01T06:07:43;94413.13;;;8.03;80.25
13407;BME280;6774;48.208;10.766;2023-04-01T06:10:16;94413.94;;;8.10;81.02
13407;BME280;6774;48.208;10.766;2023-04-01T06:12:54;94419.66;;;8.27;80.88
13407;BME280;6774;48.208;10.766;2023-04-01T06:15:32;94416.00;;;8.21;80.03
13407;BME280;6774;48.208;10.766;2023-04-01T06:18:34;94415.00;;;8.16;79.86
13407;BME280;6774;48.208;10.766;2023-04-01T06:21:13;94426.66;;;8.00;79.63
13407;BME280;6774;48.208;10.766;2023-04-01T06:24:07;94406.72;;;8.25;80.03
13407;BME280;6774;48.208;10.766;2023-04-01T06:26:45;94418.00;;;8.19;79.98
13407;BME280;6774;48.208;10.766;2023-04-01T06:29:27;94409.38;;;8.32;81.22
13407;BME280;6774;48.208;10.766;2023-04-01T06:32:22;94420.06;;;8.31;80.04
13407;BME280;6774;48.208;10.766;2023-04-01T06:35:05;94430.72;;;7.96;79.92
13407;BME280;6774;48.208;10.766;2023-04-01T06:38:00;94415.16;;;8.01;79.90
13407;BME280;6774;48.208;10.766;2023-04-01T06:43:38;94420.47;;;8.27;80.30
13407;BME280;6774;48.208;10.766;2023-04-01T06:46:20;94443.47;;;8.12;78.72
13407;BME280;6774;48.208;10.766;2023-04-01T06:49:33;94430.75;;;8.16;79.51
13407;BME280;6774;48.208;10.766;2023-04-01T06:52:46;94422.88;;;8.22;80.01
13407;BME280;6774;48.208;10.766;2023-04-01T06:55:46;94405.88;;;8.12;79.76
13407;BME280;6774;48.208;10.766;2023-04-01T06:58:29;94403.13;;;8.46;79.52
13407;BME280;6774;48.208;10.766;2023-04-01T07:01:02;94404.16;;;8.52;78.85
13407;BME280;6774;48.208;10.766;2023-04-01T07:03:34;94407.97;;;8.43;78.19
13407;BME280;6774;48.208;10.766;2023-04-01T07:06:10;94400.28;;;8.48;79.25
13407;BME280;6774;48.208;10.766;2023-04-01T07:08:50;94421.72;;;8.65;79.07
13407;BME280;6774;48.208;10.766;2023-04-01T07:11:24;94404.13;;;8.72;77.22
13407;BME280;6774;48.208;10.766;2023-04-01T07:14:17;94411.81;;;8.67;77.27
13407;BME280;6774;48.208;10.766;2023-04-01T07:16:49;94415.66;;;8.64;78.07
13407;BME280;6774;48.208;10.766;2023-04-01T07:19:22;94421.75;;;8.71;79.02
13407;BME280;6774;48.208;10.766;2023-04-01T07:22:19;94413.66;;;8.73;76.35
13407;BME280;6774;48.208;10.766;2023-04-01T07:25:07;94418.91;;;8.73;79.21
13407;BME280;6774;48.208;10.766;2023-04-01T07:27:38;94408.59;;;8.71;77.38
13407;BME280;6774;48.208;10.766;2023-04-01T07:30:13;94428.22;;;8.69;77.80
13407;BME280;6774;48.208;10.766;2023-04-01T07:32:44;94425.97;;;8.59;77.92
13407;BME280;6774;48.208;10.766;2023-04-01T07:35:21;94411.19;;;8.84;76.98
13407;BME280;6774;48.208;10.766;2023-04-01T07:38:13;94412.81;;;8.86;76.38
13407;BME280;6774;48.208;10.766;2023-04-01T07:40:48;94406.34;;;9.08;76.68
13407;BME280;6774;48.208;10.766;2023-04-01T07:43:33;94415.63;;;9.04;76.01
13407;BME280;6774;48.208;10.766;2023-04-01T07:46:39;94408.72;;;9.29;75.23
13407;BME280;6774;48.208;10.766;2023-04-01T07:49:14;94410.69;;;9.47;75.30
13407;BME280;6774;48.208;10.766;2023-04-01T07:51:51;94414.00;;;9.81;76.12
13407;BME280;6774;48.208;10.766;2023-04-01T07:54:32;94421.75;;;9.69;74.86
13407;BME280;6774;48.208;10.766;2023-04-01T07:57:09;94427.66;;;9.58;75.72
13407;BME280;6774;48.208;10.766;2023-04-01T07:59:49;94410.59;;;9.67;75.33
13407;BME280;6774;48.208;10.766;2023-04-01T08:02:49;94410.09;;;9.38;77.89
13407;BME280;6774;48.208;10.766;2023-04-01T08:05:25;94434.44;;;9.27;75.02
13407;BME280;6774;48.208;10.766;2023-04-01T08:08:03;94430.75;;;9.41;75.91
13407;BME280;6774;48.208;10.766;2023-04-01T08:11:13;94407.22;;;9.53;74.15
13407;BME280;6774;48.208;10.766;2023-04-01T08:14:05;94400.97;;;9.92;75.38
13407;BME280;6774;48.208;10.766;2023-04-01T08:16:59;94413.66;;;9.71;74.90
13407;BME280;6774;48.208;10.766;2023-04-01T08:19:49;94394.13;;;10.23;72.70
13407;BME280;6774;48.208;10.766;2023-04-01T08:22:27;94426.78;;;9.77;73.24
13407;BME280;6774;48.208;10.766;2023-04-01T08:25:02;94415.16;;;9.98;75.18
13407;BME280;6774;48.208;10.766;2023-04-01T08:27:38;94399.22;;;10.18;73.36
13407;BME280;6774;48.208;10.766;2023-04-01T08:30:18;94401.56;;;10.64;74.09
13407;BME280;6774;48.208;10.766;2023-04-01T08:32:50;94382.88;;;10.66;72.53
13407;BME280;6774;48.208;10.766;2023-04-01T08:35:27;94396.41;;;11.19;72.49
13407;BME280;6774;48.208;10.766;2023-04-01T08:38:05;94393.53;;;11.02;71.56
13407;BME280;6774;48.208;10.766;2023-04-01T08:40:55;94394.19;;;10.98;72.79
13407;BME280;6774;48.208;10.766;2023-04-01T08:50:05;94388.44;;;11.07;70.21
13407;BME280;6774;48.208;10.766;2023-04-01T08:53:00;94379.94;;;10.80;70.98
13407;BME280;6774;48.208;10.766;2023-04-01T08:55:40;94389.00;;;10.60;72.09
13407;BME280;6774;48.208;10.766;2023-04-01T08:58:44;94372.03;;;10.80;71.47
13407;BME280;6774;48.208;10.766;2023-04-01T09:01:59;94379.75;;;11.00;73.77
13407;BME280;6774;48.208;10.766;2023-04-01T09:07:46;94370.94;;;10.88;72.73
13407;BME280;6774;48.208;10.766;2023-04-01T09:10:46;94366.06;;;10.85;72.39
13407;BME280;6774;48.208;10.766;2023-04-01T09:14:06;94373.72;;;10.68;70.99
13407;BME280;6774;48.208;10.766;2023-04-01T09:19:52;94371.25;;;10.48;73.24
13407;BME280;6774;48.208;10.766;2023-04-01T09:22:52;94367.38;;;10.76;73.35
13407;BME280;6774;48.208;10.766;2023-04-01T09:25:43;94371.91;;;10.69;70.80
13407;BME280;6774;48.208;10.766;2023-04-01T09:28:18;94383.31;;;10.88;73.74
13407;BME280;6774;48.208;10.766;2023-04-01T09:31:20;94368.13;;;10.83;72.14
13407;BME280;6774;48.208;10.766;2023-04-01T09:34:26;94381.94;;;11.03;72.22
13407;BME280;6774;48.208;10.766;2023-04-01T09:37:18;94370.34;;;11.04;70.53
13407;BME280;6774;48.208;10.766;2023-04-01T09:40:02;94386.59;;;10.83;70.34
13407;BME280;6774;48.208;10.766;2023-04-01T09:42:44;94382.34;;;10.82;72.61
13407;BME280;6774;48.208;10.766;2023-04-01T09:45:42;94388.47;;;10.51;73.27
13407;BME280;6774;48.208;10.766;2023-04-01T09:48:20;94385.69;;;10.46;75.39
13407;BME280;6774;48.208;10.766;2023-04-01T09:50:58;94386.31;;;10.41;75.51
13407;BME280;6774;48.208;10.766;2023-04-01T09:53:45;94376.63;;;10.35;76.48
13407;BME280;6774;48.208;10.766;2023-04-01T09:56:52;94409.81;;;10.11;77.29
13407;BME280;6774;48.208;10.766;2023-04-01T10:00:00;94371.31;;;10.67;75.79
13407;BME280;6774;48.208;10.766;2023-04-01T10:03:23;94369.91;;;10.64;76.12
13407;BME280;6774;48.208;10.766;2023-04-01T10:06:18;94389.91;;;10.53;75.74
13407;BME280;6774;48.208;10.766;2023-04-01T10:09:14;94399.00;;;10.26;76.17
13407;BME280;6774;48.208;10.766;2023-04-01T10:12:24;94404.84;;;9.90;77.91
13407;BME280;6774;48.208;10.766;2023-04-01T10:24:56;94395.97;;;9.13;84.04
13407;BME280;6774;48.208;10.766;2023-04-01T10:34:31;94408.38;;;8.66;87.25
13407;BME280;6774;48.208;10.766;2023-04-01T10:37:22;94403.94;;;8.60;86.91
13407;BME280;6774;48.208;10.766;2023-04-01T10:40:26;94430.22;;;8.47;86.87
13407;BME280;6774;48.208;10.766;2023-04-01T10:56:48;94412.69;;;7.93;87.89
13407;BME280;6774;48.208;10.766;2023-04-01T10:59:59;94422.84;;;8.09;90.04
13407;BME280;6774;48.208;10.766;2023-04-01T11:06:55;94415.94;;;7.88;89.41
13407;BME280;6774;48.208;10.766;2023-04-01T11:13:10;94403.44;;;8.10;89.71
13407;BME280;6774;48.208;10.766;2023-04-01T11:16:06;94408.44;;;7.79;89.17
13407;BME280;6774;48.208;10.766;2023-04-01T11:22:10;94417.38;;;8.04;90.31
13407;BME280;6774;48.208;10.766;2023-04-01T11:25:04;94406.47;;;8.07;87.67
13407;BME280;6774;48.208;10.766;2023-04-01T11:28:01;94394.97;;;8.28;87.31
13407;BME280;6774;48.208;10.766;2023-04-01T11:30:47;94403.03;;;8.13;89.05
13407;BME280;6774;48.208;10.766;2023-04-01T11:33:24;94406.69;;;8.12;89.49
13407;BME280;6774;48.208;10.766;2023-04-01T11:36:22;94409.59;;;8.44;89.16
13407;BME280;6774;48.208;10.766;2023-04-01T11:39:05;94418.09;;;8.46;88.09
13407;BME280;6774;48.208;10.766;2023-04-01T11:42:06;94398.66;;;8.40;88.25
13407;BME280;6774;48.208;10.766;2023-04-01T11:45:06;94393.59;;;8.85;87.31
13407;BME280;6774;48.208;10.766;2023-04-01T11:48:07;94406.38;;;8.81;88.31
13407;BME280;6774;48.208;10.766;2023-04-01T11:50:47;94407.78;;;8.91;87.76
13407;BME280;6774;48.208;10.766;2023-04-01T11:53:28;94402.28;;;8.86;87.85
13407;BME280;6774;48.208;10.766;2023-04-01T11:56:11;94408.34;;;9.12;86.60
13407;BME280;6774;48.208;10.766;2023-04-01T11:58:53;94416.25;;;9.06;85.61
13407;BME280;6774;48.208;10.766;2023-04-01T12:01:32;94407.94;;;9.09;84.63
13407;BME280;6774;48.208;10.766;2023-04-01T12:04:30;94406.13;;;9.16;85.31
13407;BME280;6774;48.208;10.766;2023-04-01T12:07:19;94413.81;;;9.24;84.91
13407;BME280;6774;48.208;10.766;2023-04-01T12:09:56;94413.22;;;8.96;86.30
13407;BME280;6774;48.208;10.766;2023-04-01T12:12:35;94416.66;;;9.16;85.40
13407;BME280;6774;48.208;10.766;2023-04-01T12:15:25;94427.41;;;8.81;86.35
13407;BME280;6774;48.208;10.766;2023-04-01T12:18:04;94433.03;;;9.05;87.69
13407;BME280;6774;48.208;10.766;2023-04-01T12:20:39;94437.13;;;8.61;87.19
13407;BME280;6774;48.208;10.766;2023-04-01T12:23:22;94428.59;;;8.59;87.89
13407;BME280;6774;48.208;10.766;2023-04-01T12:26:15;94410.72;;;8.21;89.36
13407;BME280;6774;48.208;10.766;2023-04-01T12:28:59;94434.19;;;8.30;92.55
13407;BME280;6774;48.208;10.766;2023-04-01T12:31:38;94445.47;;;8.10;91.59
13407;BME280;6774;48.208;10.766;2023-04-01T12:34:41;94437.84;;;8.28;92.78
13407;BME280;6774;48.208;10.766;2023-04-01T12:37:17;94453.19;;;8.18;92.57
13407;BME280;6774;48.208;10.766;2023-04-01T12:39:58;94433.81;;;8.33;93.58
13407;BME280;6774;48.208;10.766;2023-04-01T12:42:43;94452.78;;;8.15;93.40
13407;BME280;6774;48.208;10.766;2023-04-01T12:45:33;94440.66;;;8.20;92.67
13407;BME280;6774;48.208;10.766;2023-04-01T12:54:20;94433.44;;;8.49;91.32
13407;BME280;6774;48.208;10.766;2023-04-01T12:57:05;94412.22;;;8.44;90.99
13407;BME280;6774;48.208;10.766;2023-04-01T12:59:52;94424.75;;;8.35;92.47
13407;BME280;6774;48.208;10.766;2023-04-01T13:02:34;94431.66;;;8.76;92.95
13407;BME280;6774;48.208;10.766;2023-04-01T13:05:18;94435.88;;;8.57;91.06
13407;BME280;6774;48.208;10.766;2023-04-01T13:08:02;94427.00;;;8.71;92.35
13407;BME280;6774;48.208;10.766;2023-04-01T13:10:45;94428.47;;;9.58;89.07
13407;BME280;6774;48.208;10.766;2023-04-01T13:16:22;94430.22;;;9.00;92.14
13407;BME280;6774;48.208;10.766;2023-04-01T13:18:58;94434.44;;;9.14;90.30
13407;BME280;6774;48.208;10.766;2023-04-01T13:21:36;94439.50;;;9.22;89.35
13407;BME280;6774;48.208;10.766;2023-04-01T13:24:15;94438.09;;;9.13;87.65
13407;BME280;6774;48.208;10.766;2023-04-01T13:26:52;94449.66;;;8.92;87.90
13407;BME280;6774;48.208;10.766;2023-04-01T13:29:30;94452.47;;;8.77;90.38
13407;BME280;6774;48.208;10.766;2023-04-01T13:32:12;94449.25;;;8.75;90.33
13407;BME280;6774;48.208;10.766;2023-04-01T13:34:51;94438.72;;;8.75;90.63
13407;BME280;6774;48.208;10.766;2023-04-01T13:37:31;94434.28;;;8.69;91.17
13407;BME280;6774;48.208;10.766;2023-04-01T13:40:14;94442.78;;;8.98;91.74
13407;BME280;6774;48.208;10.766;2023-04-01T13:42:49;94456.31;;;8.95;90.67
13407;BME280;6774;48.208;10.766;2023-04-01T13:45:22;94444.19;;;9.07;91.13
13407;BME280;6774;48.208;10.766;2023-04-01T13:48:26;94457.75;;;9.10;91.05
13407;BME280;6774;48.208;10.766;2023-04-01T13:57:12;94457.34;;;8.74;90.68
13407;BME280;6774;48.208;10.766;2023-04-01T14:00:03;94467.66;;;8.75;89.85
13407;BME280;6774;48.208;10.766;2023-04-01T14:02:46;94465.84;;;8.69;91.98
13407;BME280;6774;48.208;10.766;2023-04-01T14:05:32;94455.31;;;8.82;92.81
13407;BME280;6774;48.208;10.766;2023-04-01T14:08:17;94462.00;;;8.65;91.53
13407;BME280;6774;48.208;10.766;2023-04-01T14:10:54;94453.28;;;8.65;92.20
13407;BME280;6774;48.208;10.766;2023-04-01T14:13:31;94451.25;;;8.87;92.13
13407;BME280;6774;48.208;10.766;2023-04-01T14:19:11;94449.25;;;9.02;90.66
13407;BME280;6774;48.208;10.766;2023-04-01T14:21:50;94466.66;;;9.09;91.94
13407;BME280;6774;48.208;10.766;2023-04-01T14:24:35;94454.72;;;8.94;92.16
13407;BME280;6774;48.208;10.766;2023-04-01T14:27:21;94461.00;;;8.93;91.41
13407;BME280;6774;48.208;10.766;2023-04-01T14:30:13;94462.59;;;9.00;92.32
13407;BME280;6774;48.208;10.766;2023-04-01T14:32:50;94458.13;;;9.14;90.71
13407;BME280;6774;48.208;10.766;2023-04-01T14:35:29;94455.31;;;8.96;90.69
13407;BME280;6774;48.208;10.766;2023-04-01T14:38:39;94464.00;;;9.23;91.99
13407;BME280;6774;48.208;10.766;2023-04-01T14:41:17;94454.94;;;8.99;92.36
13407;BME280;6774;48.208;10.766;2023-04-01T14:44:05;94460.41;;;8.97;92.04
13407;BME280;6774;48.208;10.766;2023-04-01T14:47:01;94459.34;;;9.05;91.80
13407;BME280;6774;48.208;10.766;2023-04-01T14:49:34;94461.81;;;9.00;90.96
13407;BME280;6774;48.208;10.766;2023-04-01T14:52:13;94465.03;;;9.15;91.41
13407;BME280;6774;48.208;10.766;2023-04-01T14:54:44;94455.13;;;8.97;90.90
13407;BME280;6774;48.208;10.766;2023-04-01T14:57:14;94459.34;;;9.05;90.78
13407;BME280;6774;48.208;10.766;2023-04-01T14:59:47;94466.66;;;9.09;90.60
13407;BME280;6774;48.208;10.766;2023-04-01T15:05:15;94456.69;;;9.31;87.33
13407;BME280;6774;48.208;10.766;2023-04-01T15:08:08;94471.09;;;9.09;86.75
13407;BME280;6774;48.208;10.766;2023-04-01T15:11:07;94469.06;;;9.18;86.59
13407;BME280;6774;48.208;10.766;2023-04-01T15:13:58;94465.44;;;9.12;84.34
13407;BME280;6774;48.208;10.766;2023-04-01T15:16:34;94466.66;;;9.16;84.90
13407;BME280;6774;48.208;10.766;2023-04-01T15:19:15;94461.34;;;9.29;84.20
13407;BME280;6774;48.208;10.766;2023-04-01T15:25:10;94474.72;;;9.28;85.10
13407;BME280;6774;48.208;10.766;2023-04-01T15:27:48;94477.97;;;9.23;85.12
13407;BME280;6774;48.208;10.766;2023-04-01T15:30:28;94479.19;;;9.27;82.77
13407;BME280;6774;48.208;10.766;2023-04-01T15:33:12;94480.84;;;9.15;82.97
13407;BME280;6774;48.208;10.766;2023-04-01T15:35:49;94489.28;;;9.30;82.36